createdAt,value
2023-05-01T00:01:42.188Z,20.40
2023-05-01T00:04:18.850Z,20.50
2023-05-01T00:06:54.346Z,20.80
2023-05-01T00:09:33.878Z,20.90
2023-05-01T00:12:09.336Z,21.10
2023-05-01T00:14:46.617Z,21.20
2023-05-01T00:17:21.797Z,21.10
2023-05-01T00:19:59.099Z,20.90
2023-05-01T00:22:34.418Z,21.00
2023-05-01T00:25:12.418Z,21.20
2023-05-01T00:27:47.518Z,21.40
2023-05-01T00:30:25.959Z,21.60
2023-05-01T00:33:01.282Z,21.60
2023-05-01T00:35:37.515Z,21.70
2023-05-01T00:38:12.750Z,21.80
2023-05-01T00:40:50.837Z,22.00
2023-05-01T00:43:26.069Z,21.70
2023-05-01T00:46:03.747Z,21.80
2023-05-01T00:48:39.244Z,21.80
2023-05-01T00:51:17.340Z,21.80
2023-05-01T00:53:52.824Z,21.50
2023-05-01T00:56:29.653Z,21.50
2023-05-01T00:59:05.756Z,21.50
2023-05-01T01:01:43.988Z,21.10
2023-05-01T01:04:19.631Z,21.20
2023-05-01T01:07:00.649Z,21.30
2023-05-01T01:09:47.061Z,21.20
2023-05-01T01:12:32.229Z,21.20
2023-05-01T01:15:18.265Z,21.20
2023-05-01T01:18:14.225Z,21.10
2023-05-01T01:20:54.575Z,21.20
2023-05-01T01:24:03.687Z,21.20
2023-05-01T01:27:12.696Z,21.40
2023-05-01T01:30:16.392Z,21.30
2023-05-01T01:33:13.567Z,21.10
2023-05-01T01:35:58.133Z,21.30
2023-05-01T01:38:40.594Z,21.60
2023-05-01T01:41:20.862Z,21.60
2023-05-01T01:44:07.079Z,21.70
2023-05-01T01:46:44.575Z,21.80
2023-05-01T01:49:24.479Z,21.40
2023-05-01T01:52:07.293Z,21.50
2023-05-01T01:54:47.955Z,21.50
2023-05-01T01:57:26.376Z,21.60
2023-05-01T02:00:02.166Z,21.80
2023-05-01T02:02:49.313Z,22.00
2023-05-01T02:05:26.708Z,22.10
2023-05-01T02:08:06.903Z,22.10
2023-05-01T02:10:43.014Z,22.20
2023-05-01T02:13:19.817Z,22.40
2023-05-01T02:15:57.185Z,22.40
2023-05-01T02:18:34.218Z,22.10
2023-05-01T02:21:10.375Z,22.20
2023-05-01T02:23:48.157Z,22.10
2023-05-01T02:26:26.148Z,22.30
2023-05-01T02:29:02.688Z,22.30
2023-05-01T02:31:38.274Z,21.90
2023-05-01T02:34:14.116Z,22.10
2023-05-01T02:36:51.371Z,22.20
2023-05-01T02:39:31.102Z,22.30
2023-05-01T02:42:07.914Z,22.10
2023-05-01T02:44:48.152Z,22.10
2023-05-01T02:47:27.430Z,22.00
2023-05-01T02:50:06.196Z,21.90
2023-05-01T02:52:42.732Z,21.60
2023-05-01T02:55:40.514Z,21.80
2023-05-01T02:58:22.245Z,21.60
2023-05-01T03:01:00.412Z,22.00
2023-05-01T03:03:35.865Z,22.20
2023-05-01T03:06:11.712Z,22.30
2023-05-01T03:08:49.130Z,22.50
2023-05-01T03:11:26.411Z,22.70
2023-05-01T03:14:02.165Z,22.70
2023-05-01T03:16:37.991Z,22.70
2023-05-01T03:19:14.538Z,22.70
2023-05-01T03:21:49.879Z,22.90
2023-05-01T03:24:24.975Z,23.10
2023-05-01T03:27:02.708Z,23.20
2023-05-01T03:29:39.694Z,23.00
2023-05-01T03:32:15.259Z,23.10
2023-05-01T03:34:52.308Z,23.20
2023-05-01T03:37:28.913Z,23.50
2023-05-01T03:40:05.092Z,23.70
2023-05-01T03:42:43.427Z,23.90
2023-05-01T03:45:27.407Z,23.90
2023-05-01T03:48:02.802Z,23.90
2023-05-01T03:50:39.790Z,23.90
2023-05-01T03:53:15.231Z,24.10
2023-05-01T03:55:50.856Z,24.20
2023-05-01T03:58:29.378Z,23.90
2023-05-01T04:01:06.257Z,23.90
2023-05-01T04:03:46.284Z,23.90
2023-05-01T04:06:24.174Z,24.00
2023-05-01T04:09:00.331Z,24.10
2023-05-01T04:11:37.810Z,24.10
2023-05-01T04:14:15.449Z,24.20
2023-05-01T04:16:52.594Z,24.20
2023-05-01T04:19:28.637Z,24.30
2023-05-01T04:22:09.951Z,24.40
2023-05-01T04:24:46.404Z,24.20
2023-05-01T04:27:21.890Z,24.10
2023-05-01T04:30:00.146Z,24.00
2023-05-01T04:32:39.891Z,23.90
2023-05-01T04:35:15.689Z,23.70
2023-05-01T04:37:52.390Z,23.70
2023-05-01T04:40:27.970Z,23.70
2023-05-01T04:43:05.396Z,23.70
2023-05-01T04:45:44.814Z,23.60
2023-05-01T04:48:20.643Z,23.30
2023-05-01T04:50:56.961Z,23.40
2023-05-01T04:53:35.969Z,23.30
2023-05-01T04:56:13.929Z,23.10
2023-05-01T04:58:50.421Z,23.00
2023-05-01T05:01:34.273Z,22.90
2023-05-01T05:04:11.498Z,22.80
2023-05-01T05:06:47.595Z,22.70
2023-05-01T05:09:31.115Z,22.60
2023-05-01T05:12:07.777Z,22.50
2023-05-01T05:14:49.691Z,22.40
2023-05-01T05:17:28.090Z,22.20
2023-05-01T05:20:04.006Z,22.10
2023-05-01T05:22:42.504Z,22.10
2023-05-01T05:25:44.949Z,22.00
2023-05-01T05:28:21.355Z,22.00
2023-05-01T05:30:58.696Z,21.90
2023-05-01T05:33:36.419Z,21.70
2023-05-01T05:36:14.075Z,21.70
2023-05-01T05:38:53.779Z,21.60
2023-05-01T05:41:29.008Z,21.40
2023-05-01T05:44:08.354Z,21.40
2023-05-01T05:46:48.420Z,21.40
2023-05-01T05:49:36.418Z,21.50
2023-05-01T05:52:11.614Z,21.40
2023-05-01T05:54:49.159Z,21.40
2023-05-01T05:57:28.024Z,21.30
2023-05-01T06:00:07.166Z,21.40
2023-05-01T06:02:51.292Z,21.40
2023-05-01T06:05:30.598Z,21.30
2023-05-01T06:08:07.801Z,21.20
2023-05-01T06:10:43.513Z,21.20
2023-05-01T06:13:19.208Z,21.30
2023-05-01T06:15:57.159Z,21.20
2023-05-01T06:18:33.971Z,21.10
2023-05-01T06:21:15.060Z,21.10
2023-05-01T06:23:51.538Z,21.20
2023-05-01T06:26:47.471Z,21.00
2023-05-01T06:29:24.627Z,21.10
2023-05-01T06:32:00.720Z,21.00
2023-05-01T06:34:36.164Z,20.90
2023-05-01T06:37:14.228Z,20.90
2023-05-01T06:39:52.253Z,20.90
2023-05-01T06:42:28.417Z,20.80
2023-05-01T06:45:10.895Z,20.80
2023-05-01T06:47:46.453Z,20.90
2023-05-01T06:50:22.676Z,20.90
2023-05-01T06:53:01.552Z,20.80
2023-05-01T06:55:39.244Z,20.80
2023-05-01T06:58:23.642Z,20.90
2023-05-01T07:01:01.015Z,20.70
2023-05-01T07:03:36.726Z,20.60
2023-05-01T07:06:12.065Z,20.60
2023-05-01T07:08:50.794Z,20.40
2023-05-01T07:11:28.548Z,20.40
2023-05-01T07:14:04.067Z,20.20
2023-05-01T07:16:39.428Z,20.20
2023-05-01T07:19:15.247Z,20.10
2023-05-01T07:21:51.044Z,20.10
2023-05-01T07:24:29.409Z,20.00
2023-05-01T07:27:04.693Z,20.00
2023-05-01T07:29:42.484Z,20.00
2023-05-01T07:32:25.811Z,20.00
2023-05-01T07:35:01.539Z,19.90
2023-05-01T07:37:36.729Z,19.90
2023-05-01T07:40:15.896Z,19.90
2023-05-01T07:42:54.369Z,19.90
2023-05-01T07:45:29.987Z,20.00
2023-05-01T07:48:05.101Z,19.90
2023-05-01T07:50:40.536Z,20.00
2023-05-01T07:53:16.646Z,19.90
2023-05-01T07:55:54.598Z,19.90
2023-05-01T07:58:29.751Z,20.00
2023-05-01T08:01:05.341Z,19.90
2023-05-01T08:03:41.711Z,19.80
2023-05-01T08:06:17.203Z,19.80
2023-05-01T08:08:53.041Z,19.70
2023-05-01T08:11:31.468Z,19.60
2023-05-01T08:14:07.685Z,19.60
2023-05-01T08:16:43.038Z,19.70
2023-05-01T08:19:18.217Z,19.70
2023-05-01T08:21:53.556Z,19.60
2023-05-01T08:24:29.781Z,19.60
2023-05-01T08:27:07.576Z,19.50
2023-05-01T08:29:42.678Z,19.50
2023-05-01T08:32:19.965Z,19.50
2023-05-01T08:34:57.805Z,19.50
2023-05-01T08:37:33.366Z,19.40
2023-05-01T08:40:10.485Z,19.40
2023-05-01T08:42:49.698Z,19.50
2023-05-01T08:45:27.234Z,19.50
2023-05-01T08:48:05.159Z,19.50
2023-05-01T08:50:41.519Z,19.40
2023-05-01T08:53:18.260Z,19.40
2023-05-01T08:55:57.817Z,19.40
2023-05-01T08:58:38.267Z,19.30
2023-05-01T09:01:17.739Z,19.30
2023-05-01T09:03:57.055Z,19.40
2023-05-01T09:06:34.155Z,19.40
2023-05-01T09:09:10.251Z,19.30
2023-05-01T09:11:47.747Z,19.30
2023-05-01T09:14:26.913Z,19.30
2023-05-01T09:17:03.117Z,19.30
2023-05-01T09:19:38.828Z,19.30
2023-05-01T09:22:15.464Z,19.30
2023-05-01T09:24:51.028Z,19.20
2023-05-01T09:27:27.264Z,19.20
2023-05-01T09:30:05.569Z,19.20
2023-05-01T09:32:42.647Z,19.20
2023-05-01T09:35:19.738Z,19.20
2023-05-01T09:37:56.324Z,19.20
2023-05-01T09:40:33.966Z,19.10
2023-05-01T09:43:11.785Z,19.00
2023-05-01T09:46:06.954Z,19.10
2023-05-01T09:48:43.880Z,19.00
2023-05-01T09:51:30.711Z,19.00
2023-05-01T09:54:07.028Z,19.00
2023-05-01T09:56:52.422Z,18.90
2023-05-01T09:59:32.730Z,18.80
2023-05-01T10:02:10.768Z,18.90
2023-05-01T10:04:46.229Z,18.80
2023-05-01T10:07:21.497Z,18.80
2023-05-01T10:10:00.069Z,18.80
2023-05-01T10:12:38.750Z,18.70
2023-05-01T10:15:24.455Z,18.80
2023-05-01T10:18:04.606Z,18.70
2023-05-01T10:20:40.951Z,18.70
2023-05-01T10:23:18.549Z,18.70
2023-05-01T10:25:56.843Z,18.70
2023-05-01T10:28:33.543Z,18.70
2023-05-01T10:31:11.061Z,18.70
2023-05-01T10:33:49.077Z,18.60
2023-05-01T10:36:26.419Z,18.60
2023-05-01T10:39:02.474Z,18.60
2023-05-01T10:42:12.472Z,18.50
2023-05-01T10:44:49.616Z,18.50
2023-05-01T10:47:54.869Z,18.50
2023-05-01T10:50:32.345Z,18.40
2023-05-01T10:53:23.958Z,18.40
2023-05-01T10:56:00.516Z,18.40
2023-05-01T10:59:00.130Z,18.40
2023-05-01T11:01:38.348Z,18.40
2023-05-01T11:04:36.875Z,18.30
2023-05-01T11:07:23.945Z,18.40
2023-05-01T11:10:01.274Z,18.30
2023-05-01T11:12:57.420Z,18.50
2023-05-01T11:15:36.018Z,18.40
2023-05-01T11:18:13.801Z,18.40
2023-05-01T11:20:55.871Z,18.50
2023-05-01T11:23:33.114Z,18.30
2023-05-01T11:26:09.849Z,18.30
2023-05-01T11:28:46.065Z,18.20
2023-05-01T11:31:23.533Z,18.20
2023-05-01T11:34:01.127Z,18.20
2023-05-01T11:36:53.395Z,18.30
2023-05-01T11:39:30.850Z,18.30
2023-05-01T11:42:15.180Z,18.10
2023-05-01T11:45:12.561Z,18.10
2023-05-01T11:47:49.325Z,18.20
2023-05-01T11:50:25.255Z,18.00
2023-05-01T11:53:00.418Z,18.20
2023-05-01T11:55:40.324Z,18.00
2023-05-01T11:58:16.868Z,18.00
2023-05-01T12:01:19.670Z,17.90
2023-05-01T12:03:55.597Z,17.80
2023-05-01T12:06:45.602Z,17.80
2023-05-01T12:09:23.550Z,17.90
2023-05-01T12:12:10.788Z,17.80
2023-05-01T12:14:49.524Z,17.90
2023-05-01T12:17:25.104Z,17.90
2023-05-01T12:20:02.223Z,17.70
2023-05-01T12:22:38.596Z,17.80
2023-05-01T12:25:16.622Z,17.70
2023-05-01T12:28:24.540Z,17.50
2023-05-01T12:31:06.609Z,17.70
2023-05-01T12:33:42.151Z,17.70
2023-05-01T12:36:17.528Z,17.50
2023-05-01T12:39:02.390Z,17.40
2023-05-01T12:41:57.988Z,17.40
2023-05-01T12:44:38.419Z,17.40
2023-05-01T12:47:14.464Z,17.30
2023-05-01T12:50:09.181Z,17.40
2023-05-01T12:52:44.855Z,17.30
2023-05-01T12:55:20.519Z,17.20
2023-05-01T12:57:58.723Z,17.30
2023-05-01T13:00:48.585Z,17.30
2023-05-01T13:03:29.611Z,17.30
2023-05-01T13:06:07.694Z,17.30
2023-05-01T13:08:45.074Z,17.50
2023-05-01T13:11:35.043Z,17.30
2023-05-01T13:14:16.983Z,17.30
2023-05-01T13:17:15.649Z,17.40
2023-05-01T13:19:59.620Z,17.20
2023-05-01T13:22:39.704Z,17.30
2023-05-01T13:25:30.175Z,17.20
2023-05-01T13:28:06.274Z,17.20
2023-05-01T13:30:42.369Z,17.20
2023-05-01T13:33:19.835Z,17.10
2023-05-01T13:35:56.730Z,16.90
2023-05-01T13:38:32.849Z,17.00
2023-05-01T13:41:08.739Z,17.10
2023-05-01T13:43:45.828Z,17.10
2023-05-01T13:46:23.188Z,17.10
2023-05-01T13:49:02.723Z,17.00
2023-05-01T13:51:40.312Z,17.30
2023-05-01T13:54:16.231Z,17.20
2023-05-01T13:56:51.894Z,17.20
2023-05-01T13:59:41.140Z,17.10
2023-05-01T14:02:24.894Z,17.00
2023-05-01T14:05:05.217Z,17.00
2023-05-01T14:07:49.958Z,17.00
2023-05-01T20:53:09.585Z,19.10
2023-05-01T20:55:45.639Z,19.60
2023-05-01T20:58:20.977Z,20.00
2023-05-01T21:00:59.835Z,19.70
2023-05-01T21:03:36.368Z,19.00
2023-05-01T21:06:16.135Z,18.50
2023-05-01T21:08:51.931Z,18.40
2023-05-01T21:11:27.605Z,18.50
2023-05-01T21:14:04.981Z,18.60
2023-05-01T21:16:42.532Z,18.70
2023-05-01T21:19:19.203Z,19.00
2023-05-01T21:21:56.863Z,19.20
2023-05-01T21:24:33.321Z,19.40
2023-05-01T21:27:12.247Z,19.50
